Time;durP1;ratioP1;P1;durP2;ratioP2;P2;SDS_P1;SDS_P2;PMS_P1;PMS_P2;Temp;Humidity;BMP_temperature;BMP_pressure;BME280_temperature;BME280_humidity;BME280_pressure;Samples;Min_cycle;Max_cycle;Signal;HPM_P1;HPM_P2
2022/07/22 00:00:47;;;;;;;;;;;19.50;99.90;;;;;;5083075;28;19912;-65
2022/07/22 00:03:13;;;;;;;;;;;19.50;99.90;;;;;;5096012;28;20006;-64
2022/07/22 00:05:38;;;;;;;;;;;19.50;99.90;;;;;;5095546;28;19961;-65
2022/07/22 00:08:04;;;;;;;;;;;19.60;99.90;;;;;;5092881;28;20231;-65
2022/07/22 00:10:30;;;;;;;;;;;19.60;99.90;;;;;;5091704;28;19934;-65
2022/07/22 00:12:55;;;;;;;;;;;19.70;99.90;;;;;;5093952;28;19964;-66
2022/07/22 00:15:21;;;;;;;;;;;19.70;99.90;;;;;;5096148;28;19977;-64
2022/07/22 00:17:47;;;;;;;;;;;19.80;99.90;;;;;;5092917;28;19966;-65
2022/07/22 00:20:12;;;;;;;;;;;19.90;99.90;;;;;;5092031;28;19934;-64
2022/07/22 00:22:38;;;;;;;;;;;19.90;99.90;;;;;;5091694;28;19920;-64
2022/07/22 00:25:04;;;;;;;;;;;19.80;99.90;;;;;;5090968;28;20007;-65
2022/07/22 00:27:30;;;;;;;;;;;19.80;99.90;;;;;;5098041;28;20372;-65
2022/07/22 00:29:55;;;;;;;;;;;19.80;99.90;;;;;;5099787;28;20038;-64
2022/07/22 00:32:21;;;;;;;;;;;19.90;99.90;;;;;;5096072;28;19981;-65
2022/07/22 00:34:47;;;;;;;;;;;19.90;99.90;;;;;;5092503;28;20367;-64
2022/07/22 00:37:12;;;;;;;;;;;20.30;99.90;;;;;;5090328;28;19920;-64
2022/07/22 00:39:38;;;;;;;;;;;20.50;99.90;;;;;;5073807;28;19913;-65
2022/07/22 00:42:04;;;;;;;;;;;20.60;99.90;;;;;;5094952;28;19915;-64
2022/07/22 00:44:29;;;;;;;;;;;20.60;99.90;;;;;;5074598;28;20422;-64
2022/07/22 00:46:55;;;;;;;;;;;20.70;99.90;;;;;;5093341;28;20254;-65
2022/07/22 00:49:20;;;;;;;;;;;20.70;99.90;;;;;;5090458;28;19923;-65
2022/07/22 00:51:46;;;;;;;;;;;20.80;99.90;;;;;;5101618;28;19919;-64
2022/07/22 00:54:12;;;;;;;;;;;20.80;99.90;;;;;;5080473;28;21639;-65
2022/07/22 00:56:38;;;;;;;;;;;20.90;99.90;;;;;;5096459;28;20331;-65
2022/07/22 00:59:04;;;;;;;;;;;20.90;99.90;;;;;;5091086;28;19920;-65
2022/07/22 01:01:30;;;;;;;;;;;20.80;99.90;;;;;;5093000;28;19916;-64
2022/07/22 01:03:56;;;;;;;;;;;21.00;99.90;;;;;;5074834;28;19923;-65
2022/07/22 01:06:21;;;;;;;;;;;21.00;99.90;;;;;;5095009;28;19913;-65
2022/07/22 01:08:47;;;;;;;;;;;20.90;99.90;;;;;;5075158;28;19951;-64
2022/07/22 01:11:14;;;;;;;;;;;20.90;99.90;;;;;;5089386;28;19912;-65
2022/07/22 01:13:40;;;;;;;;;;;20.80;99.90;;;;;;5090931;28;19934;-64
2022/07/22 01:16:06;;;;;;;;;;;20.80;99.90;;;;;;5091022;28;19912;-64
2022/07/22 01:18:32;;;;;;;;;;;20.70;99.90;;;;;;5093801;28;19954;-64
2022/07/22 01:20:58;;;;;;;;;;;20.70;99.90;;;;;;5096532;28;19943;-65
2022/07/22 01:23:23;;;;;;;;;;;20.70;99.90;;;;;;5092148;28;19946;-65
2022/07/22 01:25:49;;;;;;;;;;;20.60;99.90;;;;;;5090638;28;19912;-64
2022/07/22 01:28:14;;;;;;;;;;;20.60;99.90;;;;;;5092158;28;20001;-65
2022/07/22 01:30:40;;;;;;;;;;;20.50;99.90;;;;;;5090865;28;19916;-65
2022/07/22 01:33:05;;;;;;;;;;;20.40;99.90;;;;;;5090838;28;19958;-65
2022/07/22 01:35:34;;;;;;;;;;;20.30;99.90;;;;;;5095504;28;20044;-65
2022/07/22 01:38:00;;;;;;;;;;;20.20;99.90;;;;;;5092367;28;19922;-65
2022/07/22 01:40:25;;;;;;;;;;;20.00;99.90;;;;;;5090565;28;19912;-66
2022/07/22 01:42:51;;;;;;;;;;;20.10;99.90;;;;;;5090538;28;19998;-65
2022/07/22 01:45:16;;;;;;;;;;;20.20;99.90;;;;;;5089613;28;19916;-65
2022/07/22 01:47:42;;;;;;;;;;;20.30;99.90;;;;;;5071010;28;20007;-64
2022/07/22 01:50:09;;;;;;;;;;;20.30;99.90;;;;;;5070577;28;19960;-64
2022/07/22 01:52:35;;;;;;;;;;;20.30;99.90;;;;;;5086983;28;19935;-65
2022/07/22 01:55:00;;;;;;;;;;;20.30;99.90;;;;;;5089004;28;19912;-64
2022/07/22 01:57:26;;;;;;;;;;;20.30;99.90;;;;;;5089966;28;20362;-65
2022/07/22 01:59:51;;;;;;;;;;;20.20;99.90;;;;;;5087750;28;20429;-64
2022/07/22 02:02:17;;;;;;;;;;;20.30;99.90;;;;;;5088339;28;20283;-65
2022/07/22 02:04:42;;;;;;;;;;;20.30;99.90;;;;;;5087163;28;19939;-65
2022/07/22 02:07:08;;;;;;;;;;;20.20;99.90;;;;;;5090841;28;19916;-64
2022/07/22 02:09:34;;;;;;;;;;;20.20;99.90;;;;;;5094897;28;19957;-64
2022/07/22 02:11:59;;;;;;;;;;;20.20;99.90;;;;;;5091344;28;19920;-64
2022/07/22 02:14:25;;;;;;;;;;;20.20;99.90;;;;;;5082286;28;20252;-65
2022/07/22 02:16:50;;;;;;;;;;;20.20;99.90;;;;;;5094723;28;21178;-65
2022/07/22 02:19:16;;;;;;;;;;;20.10;99.90;;;;;;5092499;28;19935;-65
2022/07/22 02:21:42;;;;;;;;;;;20.20;99.90;;;;;;5097332;28;19916;-65
2022/07/22 02:24:07;;;;;;;;;;;20.20;99.90;;;;;;5091548;28;19960;-64
2022/07/22 02:26:34;;;;;;;;;;;20.30;99.90;;;;;;5100078;28;19912;-65
2022/07/22 02:28:59;;;;;;;;;;;20.20;99.90;;;;;;5097334;28;19958;-65
2022/07/22 02:31:25;;;;;;;;;;;20.20;99.90;;;;;;5093502;28;20031;-66
2022/07/22 02:33:51;;;;;;;;;;;20.20;99.90;;;;;;5097902;28;19912;-65
2022/07/22 02:36:16;;;;;;;;;;;20.20;99.90;;;;;;5092655;28;19911;-65
2022/07/22 02:38:42;;;;;;;;;;;20.10;99.90;;;;;;5094139;28;19912;-65
2022/07/22 02:41:07;;;;;;;;;;;20.10;99.90;;;;;;5097098;28;19919;-65
2022/07/22 02:43:33;;;;;;;;;;;20.10;99.90;;;;;;5096567;28;20506;-64
2022/07/22 02:45:59;;;;;;;;;;;20.20;99.90;;;;;;5095777;28;20429;-65
2022/07/22 02:48:24;;;;;;;;;;;20.10;99.90;;;;;;5095284;28;19911;-65
2022/07/22 02:50:50;;;;;;;;;;;20.00;99.90;;;;;;5095974;28;19920;-66
2022/07/22 02:53:16;;;;;;;;;;;19.80;99.90;;;;;;5095988;28;19916;-65
2022/07/22 02:55:41;;;;;;;;;;;19.70;99.90;;;;;;5098066;28;20051;-65
2022/07/22 02:58:07;;;;;;;;;;;19.70;99.90;;;;;;5094879;28;19920;-65
2022/07/22 03:00:33;;;;;;;;;;;19.60;99.90;;;;;;5098202;28;19919;-66
2022/07/22 03:02:59;;;;;;;;;;;19.60;99.90;;;;;;5098682;28;19920;-65
2022/07/22 03:05:24;;;;;;;;;;;19.60;99.90;;;;;;5097919;28;19920;-65
2022/07/22 03:07:50;;;;;;;;;;;19.50;99.90;;;;;;5079318;28;20018;-65
2022/07/22 03:10:16;;;;;;;;;;;19.50;99.90;;;;;;5096956;28;19965;-64
2022/07/22 03:12:41;;;;;;;;;;;19.60;99.90;;;;;;5092452;28;20331;-65
2022/07/22 03:15:07;;;;;;;;;;;19.50;99.90;;;;;;5090603;28;19948;-65
2022/07/22 03:17:34;;;;;;;;;;;19.50;99.90;;;;;;5092290;28;19920;-64
2022/07/22 03:20:00;;;;;;;;;;;19.60;99.90;;;;;;5093553;28;19927;-65
2022/07/22 03:22:26;;;;;;;;;;;19.50;99.90;;;;;;5091180;28;19915;-65
2022/07/22 03:24:51;;;;;;;;;;;19.40;99.90;;;;;;5096798;28;19923;-65
2022/07/22 03:27:17;;;;;;;;;;;19.20;99.90;;;;;;5096326;28;19994;-65
2022/07/22 03:29:42;;;;;;;;;;;19.20;99.90;;;;;;5097062;28;19916;-65
2022/07/22 03:32:08;;;;;;;;;;;19.10;99.90;;;;;;5090274;28;19916;-65
2022/07/22 03:34:33;;;;;;;;;;;19.10;99.90;;;;;;5074192;28;20286;-65
2022/07/22 03:36:59;;;;;;;;;;;19.00;99.90;;;;;;5094496;28;20406;-65
2022/07/22 03:39:25;;;;;;;;;;;19.10;99.90;;;;;;5092465;28;20271;-64
2022/07/22 03:41:50;;;;;;;;;;;19.00;99.90;;;;;;5096761;28;20335;-65
2022/07/22 03:44:16;;;;;;;;;;;18.90;99.90;;;;;;5092151;28;19916;-65
2022/07/22 03:46:41;;;;;;;;;;;18.90;99.90;;;;;;5077771;28;19920;-66
2022/07/22 03:49:07;;;;;;;;;;;19.00;99.90;;;;;;5090930;28;19970;-65
2022/07/22 03:51:32;;;;;;;;;;;19.00;99.90;;;;;;5090903;28;19920;-66
2022/07/22 03:53:58;;;;;;;;;;;19.00;99.90;;;;;;5088620;28;19923;-64
2022/07/22 03:56:23;;;;;;;;;;;18.90;99.90;;;;;;5094991;28;19956;-65
2022/07/22 03:58:49;;;;;;;;;;;18.80;99.90;;;;;;5073485;28;19916;-65
2022/07/22 04:01:15;;;;;;;;;;;18.70;99.90;;;;;;5089185;28;20450;-64
2022/07/22 04:03:40;;;;;;;;;;;18.60;99.90;;;;;;5092981;28;20480;-65
2022/07/22 04:06:06;;;;;;;;;;;18.60;99.90;;;;;;5074345;28;19923;-65
2022/07/22 04:08:32;;;;;;;;;;;18.50;99.90;;;;;;5091691;28;20334;-65
2022/07/22 04:10:57;;;;;;;;;;;18.40;99.90;;;;;;5094262;28;19916;-65
2022/07/22 04:13:23;;;;;;;;;;;18.40;99.90;;;;;;5091511;28;21197;-66
2022/07/22 04:15:48;;;;;;;;;;;18.50;99.90;;;;;;5095979;28;19981;-65
2022/07/22 04:18:17;;;;;;;;;;;18.40;99.90;;;;;;5093033;28;20358;-65
2022/07/22 04:20:43;;;;;;;;;;;18.50;99.90;;;;;;5093256;28;19924;-65
2022/07/22 04:23:08;;;;;;;;;;;18.40;99.90;;;;;;5090889;28;19920;-65
2022/07/22 04:25:34;;;;;;;;;;;18.40;99.90;;;;;;5090680;28;20321;-65
2022/07/22 04:27:59;;;;;;;;;;;18.40;99.90;;;;;;5094699;28;19912;-65
2022/07/22 04:30:25;;;;;;;;;;;18.50;99.90;;;;;;5093939;28;19963;-65
2022/07/22 04:32:51;;;;;;;;;;;18.40;99.90;;;;;;5090434;28;19916;-65
2022/07/22 04:35:17;;;;;;;;;;;18.50;99.90;;;;;;5095616;28;19951;-65
2022/07/22 04:37:42;;;;;;;;;;;18.50;99.90;;;;;;5093913;28;20110;-65
2022/07/22 04:40:08;;;;;;;;;;;18.60;99.90;;;;;;5094181;28;19951;-66
2022/07/22 04:42:34;;;;;;;;;;;18.50;99.90;;;;;;5095279;28;19916;-65
2022/07/22 04:44:59;;;;;;;;;;;18.60;99.90;;;;;;5089717;28;19916;-65
2022/07/22 04:47:25;;;;;;;;;;;18.50;99.90;;;;;;5087798;28;19912;-65
2022/07/22 04:49:50;;;;;;;;;;;18.60;99.90;;;;;;5092893;28;19912;-65
2022/07/22 04:52:16;;;;;;;;;;;18.60;99.90;;;;;;5089652;28;20270;-64
2022/07/22 04:54:42;;;;;;;;;;;18.70;99.90;;;;;;5096557;28;20335;-66
2022/07/22 04:57:07;;;;;;;;;;;18.80;99.90;;;;;;5073839;28;19912;-66
2022/07/22 04:59:33;;;;;;;;;;;18.80;99.90;;;;;;5090768;28;20282;-65
2022/07/22 05:01:58;;;;;;;;;;;18.80;99.90;;;;;;5089434;28;20338;-64
2022/07/22 05:04:24;;;;;;;;;;;18.90;99.90;;;;;;5071952;28;20358;-65
2022/07/22 05:06:49;;;;;;;;;;;18.90;99.90;;;;;;5093157;28;19916;-66
2022/07/22 05:09:15;;;;;;;;;;;19.00;99.90;;;;;;5091628;28;20278;-65
2022/07/22 05:11:40;;;;;;;;;;;19.00;99.90;;;;;;5092435;28;20286;-66
2022/07/22 05:14:06;;;;;;;;;;;19.00;99.90;;;;;;5093580;28;19919;-65
2022/07/22 05:16:31;;;;;;;;;;;19.20;99.90;;;;;;5097883;28;19911;-65
2022/07/22 05:18:57;;;;;;;;;;;19.20;99.90;;;;;;5094977;28;20020;-65
2022/07/22 05:21:23;;;;;;;;;;;19.30;99.90;;;;;;5092087;28;20003;-64
2022/07/22 05:23:48;;;;;;;;;;;19.30;99.90;;;;;;5088752;28;19912;-65
2022/07/22 05:26:14;;;;;;;;;;;19.30;99.90;;;;;;5095695;28;19916;-65
2022/07/22 05:28:40;;;;;;;;;;;19.30;99.90;;;;;;5091440;28;19912;-65
2022/07/22 05:31:05;;;;;;;;;;;19.20;99.90;;;;;;5096537;28;20010;-65
2022/07/22 05:33:31;;;;;;;;;;;19.10;99.90;;;;;;5091583;28;19920;-66
2022/07/22 05:35:56;;;;;;;;;;;19.00;99.90;;;;;;5090686;28;19912;-66
2022/07/22 05:38:22;;;;;;;;;;;19.00;99.90;;;;;;5082342;28;19919;-65
2022/07/22 05:40:47;;;;;;;;;;;18.90;99.90;;;;;;5083370;28;19965;-65
2022/07/22 05:43:13;;;;;;;;;;;19.00;99.90;;;;;;5095937;28;19966;-65
2022/07/22 05:45:39;;;;;;;;;;;18.90;99.90;;;;;;5078000;28;19912;-65
2022/07/22 05:48:04;;;;;;;;;;;18.90;99.90;;;;;;5101070;28;20343;-65
2022/07/22 05:50:30;;;;;;;;;;;18.80;99.90;;;;;;5097358;28;19912;-65
2022/07/22 05:52:55;;;;;;;;;;;19.00;99.90;;;;;;5090887;28;20430;-65
2022/07/22 05:55:21;;;;;;;;;;;19.20;99.90;;;;;;5099646;28;19916;-65
2022/07/22 05:57:46;;;;;;;;;;;19.30;99.90;;;;;;5095983;28;19920;-65
2022/07/22 06:00:12;;;;;;;;;;;19.30;99.90;;;;;;5098730;28;19912;-65
2022/07/22 06:02:38;;;;;;;;;;;19.40;99.90;;;;;;5095719;28;20061;-65
2022/07/22 06:05:03;;;;;;;;;;;19.50;99.90;;;;;;5097343;28;19919;-66
2022/07/22 06:07:29;;;;;;;;;;;19.40;99.90;;;;;;5096121;28;19978;-65
2022/07/22 06:09:55;;;;;;;;;;;19.60;99.90;;;;;;5095605;28;20049;-65
2022/07/22 06:12:20;;;;;;;;;;;19.70;99.90;;;;;;5097303;28;19912;-65
2022/07/22 06:14:46;;;;;;;;;;;19.70;99.90;;;;;;5102353;28;20393;-64
2022/07/22 06:17:12;;;;;;;;;;;19.90;99.90;;;;;;5100162;28;20007;-63
2022/07/22 06:19:38;;;;;;;;;;;20.00;99.90;;;;;;5093553;28;19926;-65
2022/07/22 06:22:04;;;;;;;;;;;20.10;99.90;;;;;;5073802;28;19920;-64
2022/07/22 06:24:29;;;;;;;;;;;20.10;99.90;;;;;;5091996;28;20064;-65
2022/07/22 06:26:55;;;;;;;;;;;20.00;99.90;;;;;;5093293;28;19916;-66
2022/07/22 06:29:20;;;;;;;;;;;20.20;99.90;;;;;;5092061;28;19908;-65
2022/07/22 06:31:46;;;;;;;;;;;20.00;99.90;;;;;;5095184;28;19924;-65
2022/07/22 06:34:11;;;;;;;;;;;20.10;99.90;;;;;;5100537;28;19918;-65
2022/07/22 06:36:37;;;;;;;;;;;20.30;99.90;;;;;;5098049;28;19918;-65
2022/07/22 06:39:03;;;;;;;;;;;20.40;99.90;;;;;;5096116;28;20272;-65
2022/07/22 06:41:28;;;;;;;;;;;20.50;99.90;;;;;;5097667;28;20256;-65
2022/07/22 06:43:54;;;;;;;;;;;20.40;99.90;;;;;;5091887;28;19912;-66
2022/07/22 06:46:19;;;;;;;;;;;20.30;99.90;;;;;;5091044;28;19920;-65
2022/07/22 06:48:45;;;;;;;;;;;20.30;99.90;;;;;;5096661;28;19963;-65
2022/07/22 06:51:11;;;;;;;;;;;20.20;99.90;;;;;;5076925;28;20407;-65
2022/07/22 06:53:36;;;;;;;;;;;20.10;99.90;;;;;;5076148;28;19912;-66
2022/07/22 06:56:02;;;;;;;;;;;20.10;99.90;;;;;;5095225;28;19916;-66
2022/07/22 06:58:27;;;;;;;;;;;20.00;99.90;;;;;;5095072;28;20371;-65
2022/07/22 07:00:53;;;;;;;;;;;19.80;99.90;;;;;;5092921;28;20310;-65
2022/07/22 07:03:19;;;;;;;;;;;20.00;99.90;;;;;;5094829;28;19920;-65
2022/07/22 07:05:44;;;;;;;;;;;20.10;99.90;;;;;;5095914;28;19919;-65
2022/07/22 07:08:10;;;;;;;;;;;20.30;99.90;;;;;;5074908;28;20362;-65
2022/07/22 07:10:35;;;;;;;;;;;20.30;99.90;;;;;;5092381;28;19923;-66
2022/07/22 07:13:01;;;;;;;;;;;20.40;99.90;;;;;;5088611;28;19927;-65
2022/07/22 07:15:26;;;;;;;;;;;20.50;99.90;;;;;;5097953;28;19965;-66
2022/07/22 07:17:52;;;;;;;;;;;20.30;99.90;;;;;;5084372;28;19923;-66
2022/07/22 07:20:18;;;;;;;;;;;20.30;99.90;;;;;;5094705;28;19928;-64
2022/07/22 07:22:44;;;;;;;;;;;20.40;99.90;;;;;;5093237;28;19935;-65
2022/07/22 07:25:09;;;;;;;;;;;20.30;99.90;;;;;;5086815;28;19920;-65
2022/07/22 07:27:35;;;;;;;;;;;20.30;99.90;;;;;;5094729;28;19919;-66
2022/07/22 07:30:01;;;;;;;;;;;20.30;99.90;;;;;;5092028;28;19920;-65
2022/07/22 07:32:26;;;;;;;;;;;20.30;99.90;;;;;;5070452;28;19931;-65
2022/07/22 07:34:52;;;;;;;;;;;20.40;99.90;;;;;;5087317;28;19965;-65
2022/07/22 07:37:17;;;;;;;;;;;20.50;99.90;;;;;;5072255;28;19962;-65
2022/07/22 07:39:46;;;;;;;;;;;20.70;99.90;;;;;;5094645;28;19919;-65
2022/07/22 07:42:11;;;;;;;;;;;20.60;99.90;;;;;;5097418;28;20625;-65
2022/07/22 07:44:37;;;;;;;;;;;20.60;99.90;;;;;;5074145;28;19912;-65
2022/07/22 07:47:02;;;;;;;;;;;20.50;99.90;;;;;;5090543;28;19919;-65
2022/07/22 07:49:28;;;;;;;;;;;20.50;99.90;;;;;;5075178;28;19916;-65
2022/07/22 07:51:54;;;;;;;;;;;20.40;99.90;;;;;;5091581;28;20289;-65
2022/07/22 07:54:20;;;;;;;;;;;20.30;99.90;;;;;;5092989;28;19912;-65
2022/07/22 07:56:45;;;;;;;;;;;20.40;99.90;;;;;;5095249;28;19973;-66
2022/07/22 07:59:11;;;;;;;;;;;20.20;99.90;;;;;;5085708;28;19921;-67
2022/07/22 08:01:37;;;;;;;;;;;20.10;99.90;;;;;;5085630;28;20338;-65
2022/07/22 08:04:02;;;;;;;;;;;20.30;99.90;;;;;;5092638;28;19922;-65
2022/07/22 08:06:28;;;;;;;;;;;20.40;99.90;;;;;;5086678;28;19912;-65
2022/07/22 08:08:53;;;;;;;;;;;20.70;99.90;;;;;;5084814;28;19985;-66
2022/07/22 08:11:19;;;;;;;;;;;20.70;99.90;;;;;;5080104;28;20056;-64
2022/07/22 08:13:45;;;;;;;;;;;20.60;99.90;;;;;;5090140;28;19920;-65
2022/07/22 08:16:10;;;;;;;;;;;20.70;99.90;;;;;;5089037;28;20653;-64
2022/07/22 08:18:36;;;;;;;;;;;20.70;99.90;;;;;;5071613;28;19917;-65
2022/07/22 08:21:02;;;;;;;;;;;20.80;99.90;;;;;;5090438;28;20276;-65
2022/07/22 08:23:27;;;;;;;;;;;20.80;99.90;;;;;;5087077;28;19916;-65
2022/07/22 08:25:53;;;;;;;;;;;20.50;99.90;;;;;;5088754;28;20001;-64
2022/07/22 08:28:19;;;;;;;;;;;20.50;99.90;;;;;;5089542;28;19934;-65
2022/07/22 08:30:44;;;;;;;;;;;20.60;99.90;;;;;;5068132;28;19965;-64
2022/07/22 08:33:10;;;;;;;;;;;20.80;99.90;;;;;;5073462;28;19920;-65
2022/07/22 08:35:35;;;;;;;;;;;20.90;99.90;;;;;;5090910;28;19918;-65
2022/07/22 08:38:01;;;;;;;;;;;20.90;99.90;;;;;;5085599;28;20537;-65
2022/07/22 08:40:27;;;;;;;;;;;21.10;99.90;;;;;;5083594;28;19916;-65
2022/07/22 08:42:53;;;;;;;;;;;20.90;99.90;;;;;;5093116;28;19924;-65
2022/07/22 08:45:19;;;;;;;;;;;20.80;99.90;;;;;;5065843;28;19923;-66
2022/07/22 08:47:45;;;;;;;;;;;20.80;99.90;;;;;;5070336;28;19919;-66
2022/07/22 08:50:11;;;;;;;;;;;20.70;99.90;;;;;;5095908;28;19916;-65
2022/07/22 08:52:37;;;;;;;;;;;20.90;99.90;;;;;;5094646;28;20259;-65
2022/07/22 08:55:04;;;;;;;;;;;21.30;99.90;;;;;;5075073;28;19961;-66
2022/07/22 08:57:29;;;;;;;;;;;21.40;99.90;;;;;;5081754;28;19998;-65
2022/07/22 08:59:56;;;;;;;;;;;21.80;99.90;;;;;;5093574;28;20006;-65
2022/07/22 09:02:23;;;;;;;;;;;22.00;99.90;;;;;;5100315;28;19970;-65
2022/07/22 09:04:57;;;;;;;;;;;22.40;99.90;;;;;;5072957;28;19916;-65
2022/07/22 09:07:29;;;;;;;;;;;22.40;99.90;;;;;;5086897;28;20002;-66
2022/07/22 09:09:55;;;;;;;;;;;22.30;99.90;;;;;;5093212;28;19913;-66
2022/07/22 09:12:22;;;;;;;;;;;22.10;99.90;;;;;;5096398;28;19916;-66
2022/07/22 09:14:48;;;;;;;;;;;22.10;99.90;;;;;;5073707;28;19965;-66
2022/07/22 09:17:31;;;;;;;;;;;22.10;99.90;;;;;;5091185;28;19918;-65
2022/07/22 09:19:57;;;;;;;;;;;22.30;99.90;;;;;;5093837;28;19920;-66
2022/07/22 09:22:33;;;;;;;;;;;22.30;99.90;;;;;;5094268;28;20027;-65
2022/07/22 09:25:15;;;;;;;;;;;22.50;99.90;;;;;;5104574;28;20004;-64
2022/07/22 09:27:41;;;;;;;;;;;22.70;99.90;;;;;;5097430;28;20342;-64
2022/07/22 09:30:11;;;;;;;;;;;22.80;99.90;;;;;;5094943;28;19912;-66
2022/07/22 09:32:41;;;;;;;;;;;23.00;99.90;;;;;;5093950;28;20370;-65
2022/07/22 09:35:07;;;;;;;;;;;23.10;99.90;;;;;;5101519;28;19919;-65
2022/07/22 09:37:32;;;;;;;;;;;23.30;99.00;;;;;;5075180;28;19928;-66
2022/07/22 09:40:15;;;;;;;;;;;23.60;97.90;;;;;;5079207;28;20049;-65
2022/07/22 09:42:45;;;;;;;;;;;23.70;95.80;;;;;;5107859;28;19920;-65
2022/07/22 09:45:10;;;;;;;;;;;23.50;96.40;;;;;;5106642;28;19920;-65
2022/07/22 09:47:36;;;;;;;;;;;23.30;96.60;;;;;;5099707;28;19981;-65
2022/07/22 09:50:02;;;;;;;;;;;23.30;96.90;;;;;;5098202;28;19918;-65
2022/07/22 09:52:27;;;;;;;;;;;23.20;97.10;;;;;;5095992;28;20625;-65
2022/07/22 09:54:53;;;;;;;;;;;23.20;96.60;;;;;;5102550;28;19923;-66
2022/07/22 09:57:19;;;;;;;;;;;23.10;97.50;;;;;;5094330;28;20367;-65
2022/07/22 09:59:44;;;;;;;;;;;23.00;98.20;;;;;;5098716;28;20256;-66
2022/07/22 10:02:10;;;;;;;;;;;23.10;98.30;;;;;;5104399;28;19920;-65
2022/07/22 10:04:36;;;;;;;;;;;23.20;96.50;;;;;;5100091;28;20282;-65
2022/07/22 10:07:02;;;;;;;;;;;23.10;96.60;;;;;;5093734;28;19915;-65
2022/07/22 10:09:28;;;;;;;;;;;23.00;97.30;;;;;;5098517;28;19920;-66
2022/07/22 10:11:54;;;;;;;;;;;22.70;98.90;;;;;;5095427;28;19930;-64
2022/07/22 10:14:20;;;;;;;;;;;22.50;99.70;;;;;;5072619;28;20102;-65
2022/07/22 10:16:46;;;;;;;;;;;22.60;99.70;;;;;;5095936;28;20000;-64
2022/07/22 10:19:12;;;;;;;;;;;23.00;98.90;;;;;;5098978;28;19999;-65
2022/07/22 10:21:38;;;;;;;;;;;23.50;96.80;;;;;;5084043;28;19916;-65
2022/07/22 10:24:06;;;;;;;;;;;24.10;93.70;;;;;;5095126;28;19953;-65
2022/07/22 10:26:47;;;;;;;;;;;24.20;92.60;;;;;;5092807;28;19911;-65
2022/07/22 10:29:31;;;;;;;;;;;23.70;94.30;;;;;;5094477;28;19912;-66
2022/07/22 10:32:15;;;;;;;;;;;23.50;96.10;;;;;;5091952;28;19915;-65
2022/07/22 10:35:02;;;;;;;;;;;23.50;97.00;;;;;;5097083;28;19920;-65
2022/07/22 10:37:33;;;;;;;;;;;23.50;95.20;;;;;;5075691;28;19911;-65
2022/07/22 10:40:08;;;;;;;;;;;23.30;95.40;;;;;;5090433;28;19915;-66
2022/07/22 10:42:52;;;;;;;;;;;23.40;95.50;;;;;;5091911;28;19923;-65
2022/07/22 10:45:18;;;;;;;;;;;23.40;95.60;;;;;;5089242;28;19966;-64
2022/07/22 10:47:54;;;;;;;;;;;23.50;96.10;;;;;;5087026;28;19916;-67
2022/07/22 10:50:37;;;;;;;;;;;23.70;94.90;;;;;;5088505;28;19912;-66
2022/07/22 10:53:23;;;;;;;;;;;24.00;94.50;;;;;;5089611;28;19939;-65
2022/07/22 10:55:59;;;;;;;;;;;23.80;93.30;;;;;;5092811;28;19987;-66
2022/07/22 10:58:33;;;;;;;;;;;23.60;94.70;;;;;;5075046;28;19927;-66
2022/07/22 11:01:03;;;;;;;;;;;23.80;94.20;;;;;;5091511;28;19919;-66
2022/07/22 11:03:32;;;;;;;;;;;23.90;93.80;;;;;;5073787;28;19916;-65
2022/07/22 11:06:17;;;;;;;;;;;23.50;94.10;;;;;;5087869;28;19927;-65
2022/07/22 11:08:43;;;;;;;;;;;23.50;94.90;;;;;;5072935;28;19912;-66
2022/07/22 11:11:09;;;;;;;;;;;23.50;95.40;;;;;;5085073;28;20351;-66
2022/07/22 11:13:35;;;;;;;;;;;24.00;93.30;;;;;;5088326;28;19931;-66
2022/07/22 11:16:16;;;;;;;;;;;23.90;93.50;;;;;;5090248;28;19919;-65
2022/07/22 11:18:50;;;;;;;;;;;23.90;93.60;;;;;;5086901;28;19947;-65
2022/07/22 11:21:17;;;;;;;;;;;24.00;93.00;;;;;;5023355;28;1909781;-65
2022/07/22 11:23:43;;;;;;;;;;;24.50;92.70;;;;;;5073116;28;19923;-65
2022/07/22 11:26:12;;;;;;;;;;;24.40;91.70;;;;;;5088217;28;20371;-65
2022/07/22 11:28:39;;;;;;;;;;;24.40;91.40;;;;;;5090745;28;19967;-66
2022/07/22 11:31:05;;;;;;;;;;;24.70;90.90;;;;;;5095779;28;19931;-64
2022/07/22 11:33:31;;;;;;;;;;;24.80;89.40;;;;;;5093457;28;19938;-65
2022/07/22 11:36:15;;;;;;;;;;;24.80;88.70;;;;;;5088587;28;19959;-66
2022/07/22 11:38:41;;;;;;;;;;;24.50;90.10;;;;;;5086765;28;20020;-66
2022/07/22 11:41:06;;;;;;;;;;;24.20;90.50;;;;;;5091878;28;20347;-65
2022/07/22 11:43:38;;;;;;;;;;;23.90;91.20;;;;;;5095414;28;19977;-66
2022/07/22 11:46:04;;;;;;;;;;;23.80;92.00;;;;;;5086994;28;19920;-66
2022/07/22 11:48:30;;;;;;;;;;;23.70;92.60;;;;;;5093081;28;20315;-65
2022/07/22 11:51:00;;;;;;;;;;;23.70;92.80;;;;;;5090421;28;20328;-65
2022/07/22 11:53:26;;;;;;;;;;;23.80;92.20;;;;;;5083856;28;19916;-65
2022/07/22 11:55:55;;;;;;;;;;;23.70;92.30;;;;;;5086216;28;20134;-64
2022/07/22 11:58:33;;;;;;;;;;;23.70;91.90;;;;;;5072766;28;19916;-65
2022/07/22 12:00:58;;;;;;;;;;;23.60;92.70;;;;;;5095093;28;19930;-65
2022/07/22 12:03:24;;;;;;;;;;;23.60;92.50;;;;;;5094863;28;19915;-65
2022/07/22 12:05:49;;;;;;;;;;;23.80;92.10;;;;;;5087163;28;20022;-64
2022/07/22 12:08:15;;;;;;;;;;;23.80;91.30;;;;;;5090297;28;19912;-65
2022/07/22 12:10:42;;;;;;;;;;;23.60;91.60;;;;;;5091288;28;20478;-64
2022/07/22 12:13:11;;;;;;;;;;;23.60;92.20;;;;;;5076398;28;19935;-66
2022/07/22 12:15:36;;;;;;;;;;;23.70;92.20;;;;;;5071426;28;20246;-65
2022/07/22 12:18:15;;;;;;;;;;;23.70;91.80;;;;;;5087833;28;19912;-65
2022/07/22 12:20:47;;;;;;;;;;;23.90;91.40;;;;;;5092957;28;20018;-66
2022/07/22 12:23:13;;;;;;;;;;;24.00;89.60;;;;;;5088437;28;19931;-65
2022/07/22 12:25:55;;;;;;;;;;;24.20;89.10;;;;;;5088920;28;19937;-65
2022/07/22 12:28:21;;;;;;;;;;;24.10;90.40;;;;;;5085751;28;19916;-65
2022/07/22 12:30:47;;;;;;;;;;;24.20;91.30;;;;;;5068058;28;19912;-66
2022/07/22 12:33:15;;;;;;;;;;;24.20;92.60;;;;;;5067223;28;19916;-66
2022/07/22 12:35:40;;;;;;;;;;;23.90;93.00;;;;;;5092540;28;19943;-66
2022/07/22 12:38:07;;;;;;;;;;;23.60;97.80;;;;;;5093957;28;20320;-65
2022/07/22 12:40:33;;;;;;;;;;;23.40;99.90;;;;;;5080475;28;19919;-65
2022/07/22 12:43:00;;;;;;;;;;;23.20;99.90;;;;;;5093055;28;19923;-65
2022/07/22 12:45:26;;;;;;;;;;;23.20;99.50;;;;;;5095207;28;19920;-65
2022/07/22 12:47:55;;;;;;;;;;;23.20;99.90;;;;;;5073978;28;19920;-66
2022/07/22 12:50:27;;;;;;;;;;;23.00;99.90;;;;;;5092423;28;19921;-65
2022/07/22 12:52:57;;;;;;;;;;;23.10;99.90;;;;;;5080730;28;20014;-66
2022/07/22 12:55:23;;;;;;;;;;;23.30;99.90;;;;;;5086000;28;20385;-67
2022/07/22 12:57:48;;;;;;;;;;;23.50;99.90;;;;;;5085898;28;19916;-67
2022/07/22 13:00:18;;;;;;;;;;;23.80;98.40;;;;;;5089008;28;19920;-65
2022/07/22 13:02:43;;;;;;;;;;;24.20;94.10;;;;;;5076068;28;19923;-65
2022/07/22 13:05:09;;;;;;;;;;;24.70;93.10;;;;;;5070761;28;19931;-65
2022/07/22 13:07:35;;;;;;;;;;;24.80;91.60;;;;;;5093494;28;19912;-65
2022/07/22 13:10:00;;;;;;;;;;;24.10;96.10;;;;;;5080600;28;19919;-66
2022/07/22 13:12:26;;;;;;;;;;;23.50;99.90;;;;;;5094606;28;19948;-66
2022/07/22 13:14:51;;;;;;;;;;;23.10;99.90;;;;;;5089821;28;19923;-65
2022/07/22 13:17:17;;;;;;;;;;;22.80;99.90;;;;;;5090258;28;19908;-66
2022/07/22 13:19:43;;;;;;;;;;;22.50;99.90;;;;;;5087002;28;20426;-66
2022/07/22 13:22:09;;;;;;;;;;;22.20;99.90;;;;;;5095440;28;19916;-65
2022/07/22 13:24:34;;;;;;;;;;;22.00;99.90;;;;;;5090323;28;19939;-65
2022/07/22 13:27:00;;;;;;;;;;;21.90;99.90;;;;;;5091799;28;19924;-66
2022/07/22 13:29:26;;;;;;;;;;;22.00;99.90;;;;;;5091609;28;19973;-66
2022/07/22 13:31:51;;;;;;;;;;;21.90;99.90;;;;;;5090942;28;20003;-65
2022/07/22 13:34:17;;;;;;;;;;;21.40;99.90;;;;;;5093704;28;20408;-65
2022/07/22 13:36:42;;;;;;;;;;;21.00;99.90;;;;;;5091121;28;20397;-65
2022/07/22 13:39:09;;;;;;;;;;;20.60;99.90;;;;;;5091535;28;20010;-65
2022/07/22 13:41:34;;;;;;;;;;;20.40;99.90;;;;;;5094723;28;20290;-65
2022/07/22 13:44:00;;;;;;;;;;;20.20;99.90;;;;;;5089111;28;19920;-66
2022/07/22 13:46:25;;;;;;;;;;;20.10;99.90;;;;;;5067199;28;19913;-67
2022/07/22 13:48:52;;;;;;;;;;;20.00;99.90;;;;;;5076376;28;19977;-67
2022/07/22 13:51:18;;;;;;;;;;;19.80;99.90;;;;;;5087593;28;20373;-66
2022/07/22 13:53:44;;;;;;;;;;;19.60;99.90;;;;;;5078556;28;19911;-67
2022/07/22 13:56:10;;;;;;;;;;;19.50;99.90;;;;;;5086348;28;19920;-67
2022/07/22 13:58:37;;;;;;;;;;;19.40;99.90;;;;;;5093705;28;20365;-66
2022/07/22 14:01:03;;;;;;;;;;;19.30;99.90;;;;;;5095355;28;19917;-66
2022/07/22 14:03:29;;;;;;;;;;;19.10;99.90;;;;;;5092134;28;19930;-68
2022/07/22 14:05:54;;;;;;;;;;;18.90;99.90;;;;;;5088439;28;20013;-68
2022/07/22 14:08:20;;;;;;;;;;;18.80;99.90;;;;;;5103600;28;19919;-69
2022/07/22 14:10:45;;;;;;;;;;;18.60;99.90;;;;;;5098038;28;19912;-68
2022/07/22 14:13:11;;;;;;;;;;;18.60;99.90;;;;;;5099719;28;19959;-69